Brooklyn, NY (11215)

5:13 AM EST on January 30, 2015 (GMT -0500)
Park Slope | Change Station
CLOSE
Current Station
Personal Weather Station
Location: New York, NY
Elevation: 160 ft
Nearby Weather Stations
Active Advisory: Wind Advisory

Elev 160 ft 40.66 °N, 73.98 °W | Updated 1 minute ago

Overcast
Overcast
34.6 °F
Feels Like 35 °F
N
0.0
Wind Variable Wind from SSW
Gusts 1.0 mph

Today
High -- | Low -- °F
--% Chance of Precip.
Yesterday
High -- | Low -- °F
Precip. -- in
7:07 AM 5:10 PM
Waxing Gibbous, 81% visible
Pressure 29.85 in
Visibility 10.0 miles
Clouds Overcast 3300 ft
Windchill 35 °F
Dew Point 29 °F
Humidity 81%
Rainfall 0.00 in
Snow Depth Not available.
UV 0 out of 12
Pollen .10 out of 12
Air Quality Not available.
Flu Activity Not available.
METAR KNYC 300951Z AUTO VRB03KT 10SM OVC033 02/M03 A2987 RMK AO2 SLP106 T00171028

More Conditions Fewer Conditions

Pressure 29.85 in
Visibility 10.0 miles
Clouds Overcast 3300 ft
Windchill 35 °F
Dew Point 29 °F
Humidity 81%
Rainfall 0.00 in
Snow Depth Not available.
UV 0 out of 12
Pollen .10 out of 12
Air Quality Not available.
Flu Activity Not available.
METAR KNYC 300951Z AUTO VRB03KT 10SM OVC033 02/M03 A2987 RMK AO2 SLP106 T00171028

More Conditions Fewer Conditions

10-Day Weather Forecast

Almanac

Astronomy

Jan. 30, 2015 Rise Set
Actual Time
Civil Twilight
Nautical Twilight
Astronomical Twilight
Moon
Length of Visible Light
Length of Day
Tomorrow will be .
, % of the Moon is Illuminated

Today's Extremes

State Highs State Lows

Community

WunderPhotos

Upload Photos

1,791,736 photos uploaded!

WunderBlogs® & News

Nearby

Air Quality

  Air Quality AQ Index Pollutant
Not available.

Snow Depth

Station Depth Elevation

Earthquake Activity

City Distance Mag. Time & Date
Minimum magnitude displayed is 2.5.

Coastal Water Temperatures

Place Temperature

Nearby Weather Stations